Time;durP1;ratioP1;P1;durP2;ratioP2;P2;SDS_P1;SDS_P2;PMS_P1;PMS_P2;Temp;Humidity;BMP_temperature;BMP_pressure;BME280_temperature;BME280_humidity;BME280_pressure;Samples;Min_cycle;Max_cycle;Signal;HPM_P1;HPM_P2
2022/12/02 00:00:49;;;;;;;62.58;32.22;;;5.80;99.90;;;;;;5137103;27;20267;-64
2022/12/02 00:03:20;;;;;;;59.72;31.15;;;5.50;99.90;;;;;;5101399;27;20176;-64
2022/12/02 00:05:49;;;;;;;58.65;31.27;;;5.40;99.90;;;;;;5136712;27;20535;-63
2022/12/02 00:08:20;;;;;;;57.33;31.60;;;5.40;99.90;;;;;;5136597;27;20186;-64
2022/12/02 00:10:47;;;;;;;58.63;30.63;;;5.30;99.90;;;;;;5136589;27;20187;-64
2022/12/02 00:13:42;;;;;;;58.75;31.17;;;5.10;99.90;;;;;;5136646;27;20677;-64
2022/12/02 00:16:19;;;;;;;62.03;32.90;;;5.20;99.90;;;;;;5136593;27;20199;-64
2022/12/02 00:18:44;;;;;;;57.80;31.17;;;5.20;99.90;;;;;;5136710;27;20179;-64
2022/12/02 00:21:10;;;;;;;63.92;32.47;;;5.70;99.90;;;;;;5136259;27;20168;-63
2022/12/02 00:23:36;;;;;;;62.80;31.88;;;6.00;99.90;;;;;;5136104;27;20177;-64
2022/12/02 00:26:01;;;;;;;62.92;34.35;;;6.00;99.90;;;;;;5136649;27;20211;-64
2022/12/02 00:28:27;;;;;;;66.75;34.10;;;5.80;99.90;;;;;;5136538;27;20225;-64
2022/12/02 00:30:53;;;;;;;64.18;33.55;;;5.80;99.90;;;;;;5117792;27;20179;-64
2022/12/02 00:33:18;;;;;;;60.38;32.08;;;5.60;99.90;;;;;;5118184;27;20183;-64
2022/12/02 00:35:47;;;;;;;59.85;31.40;;;5.40;99.90;;;;;;5117851;27;20204;-64
2022/12/02 00:38:13;;;;;;;56.65;30.75;;;5.10;99.90;;;;;;5100503;27;20541;-64
2022/12/02 00:40:39;;;;;;;57.17;30.90;;;5.10;99.90;;;;;;5136074;27;20196;-64
2022/12/02 00:48:33;;;;;;;65.22;31.15;;;5.00;99.90;;;;;;5135937;27;20713;-64
2022/12/02 00:50:59;;;;;;;58.90;30.52;;;5.20;99.90;;;;;;5135876;27;20180;-64
2022/12/02 00:53:24;;;;;;;55.53;29.58;;;5.00;99.90;;;;;;5135782;27;20176;-64
2022/12/02 00:55:50;;;;;;;60.63;29.17;;;5.10;99.90;;;;;;5117297;27;20215;-64
2022/12/02 00:58:15;;;;;;;57.08;30.60;;;5.20;99.90;;;;;;5117183;27;20637;-64
2022/12/02 01:00:41;;;;;;;55.55;28.63;;;5.00;99.90;;;;;;5117047;27;20184;-64
2022/12/02 01:03:07;;;;;;;53.83;28.98;;;5.00;99.90;;;;;;5116996;27;20180;-64
2022/12/02 01:05:32;;;;;;;53.55;29.08;;;4.90;99.90;;;;;;5100365;27;20639;-64
2022/12/02 01:07:58;;;;;;;57.28;30.27;;;5.10;99.90;;;;;;5117080;27;20640;-63
2022/12/02 01:10:24;;;;;;;55.65;29.73;;;5.10;99.90;;;;;;5135541;27;20183;-64
2022/12/02 01:12:49;;;;;;;51.85;29.13;;;5.10;99.90;;;;;;5117214;27;20187;-64
2022/12/02 01:15:15;;;;;;;52.50;28.75;;;5.00;99.90;;;;;;5135175;27;20207;-64
2022/12/02 01:17:41;;;;;;;57.85;31.42;;;5.10;99.90;;;;;;5116641;27;20640;-64
2022/12/02 01:20:07;;;;;;;56.15;30.35;;;5.00;99.90;;;;;;5135084;27;20237;-64
2022/12/02 01:22:32;;;;;;;57.28;29.60;;;4.80;99.90;;;;;;5116876;27;20187;-64
2022/12/02 01:24:58;;;;;;;54.25;28.67;;;4.80;99.90;;;;;;5100133;27;20179;-63
2022/12/02 01:27:24;;;;;;;49.65;27.58;;;4.70;99.90;;;;;;5116703;27;20186;-64
2022/12/02 01:29:49;;;;;;;51.55;27.98;;;4.60;99.90;;;;;;5116776;27;20174;-64
2022/12/02 01:32:15;;;;;;;60.30;29.48;;;4.60;99.90;;;;;;5116490;27;20176;-64
2022/12/02 01:34:41;;;;;;;53.50;28.65;;;4.80;99.90;;;;;;5135018;27;20660;-64
2022/12/02 01:37:07;;;;;;;51.17;28.02;;;4.90;99.90;;;;;;5134979;27;20172;-64
2022/12/02 01:39:33;;;;;;;52.08;28.23;;;4.80;99.90;;;;;;5116662;27;20228;-64
2022/12/02 01:41:59;;;;;;;48.13;28.42;;;4.70;99.90;;;;;;5135183;27;20289;-63
2022/12/02 01:44:25;;;;;;;50.63;28.55;;;4.70;99.90;;;;;;5134668;27;20180;-64
2022/12/02 01:46:51;;;;;;;52.38;28.45;;;4.70;99.90;;;;;;5134657;27;20256;-64
2022/12/02 01:49:17;;;;;;;56.60;29.23;;;4.60;99.90;;;;;;5134508;27;20179;-64
2022/12/02 01:51:43;;;;;;;52.22;28.80;;;4.60;99.90;;;;;;5116258;27;20628;-64
2022/12/02 01:54:08;;;;;;;48.00;28.77;;;4.60;99.90;;;;;;5116104;27;20200;-64
2022/12/02 01:56:34;;;;;;;57.63;28.70;;;4.60;99.90;;;;;;5116155;27;20207;-63
2022/12/02 01:59:00;;;;;;;54.47;28.92;;;4.60;99.90;;;;;;5134531;27;20178;-64
2022/12/02 02:01:33;;;;;;;54.70;28.45;;;4.60;99.90;;;;;;5116087;28;20195;-64
2022/12/02 02:04:00;;;;;;;56.20;28.95;;;4.70;99.90;;;;;;5134490;27;20175;-64
2022/12/02 02:06:42;;;;;;;55.53;29.05;;;4.70;99.90;;;;;;5134713;27;20176;-64
2022/12/02 02:09:08;;;;;;;55.00;28.95;;;4.80;99.90;;;;;;5134406;27;20167;-64
2022/12/02 02:11:35;;;;;;;54.20;29.42;;;4.90;99.90;;;;;;5134187;27;20266;-63
2022/12/02 02:14:03;;;;;;;64.72;29.35;;;5.00;99.90;;;;;;5134063;27;20184;-64
2022/12/02 02:16:29;;;;;;;54.15;30.17;;;5.00;99.90;;;;;;5134208;27;20258;-64
2022/12/02 02:18:55;;;;;;;53.17;28.67;;;4.90;99.90;;;;;;5134633;27;20563;-64
2022/12/02 02:21:25;;;;;;;56.42;28.85;;;4.90;99.90;;;;;;5115872;28;20169;-64
2022/12/02 02:23:51;;;;;;;53.13;30.10;;;5.00;99.90;;;;;;5134266;28;20160;-64
2022/12/02 02:26:16;;;;;;;58.08;29.63;;;5.00;99.90;;;;;;5115760;28;20696;-64
2022/12/02 02:28:42;;;;;;;54.83;29.15;;;5.20;99.90;;;;;;5134018;28;20217;-64
2022/12/02 02:31:08;;;;;;;59.42;30.63;;;5.30;99.90;;;;;;5134230;28;20192;-64
2022/12/02 02:33:34;;;;;;;54.58;30.15;;;5.40;99.90;;;;;;5115808;28;20233;-64
2022/12/02 02:36:02;;;;;;;57.65;29.52;;;5.50;99.90;;;;;;5133471;28;20557;-64
2022/12/02 02:38:29;;;;;;;53.28;29.67;;;5.70;99.90;;;;;;5134288;28;20179;-64
2022/12/02 02:40:55;;;;;;;59.08;30.65;;;5.50;99.90;;;;;;5133964;28;20199;-64
2022/12/02 02:43:23;;;;;;;57.60;30.70;;;5.50;99.90;;;;;;5134174;28;20176;-64
2022/12/02 02:45:53;;;;;;;59.38;31.13;;;5.50;99.90;;;;;;5115636;28;20657;-64
2022/12/02 02:48:20;;;;;;;58.88;31.00;;;5.30;99.90;;;;;;5134338;28;20183;-64
2022/12/02 02:50:47;;;;;;;59.45;31.45;;;5.40;99.90;;;;;;5116146;28;20241;-63
2022/12/02 02:53:15;;;;;;;55.08;30.20;;;5.30;99.90;;;;;;5133867;28;20173;-64
2022/12/02 02:55:41;;;;;;;59.35;31.13;;;5.20;99.90;;;;;;5133678;28;20785;-64
2022/12/02 02:58:19;;;;;;;55.97;31.48;;;5.20;99.90;;;;;;5133917;28;20184;-64
2022/12/02 03:00:50;;;;;;;65.15;32.75;;;5.20;99.90;;;;;;5133931;28;20239;-64
2022/12/02 03:03:18;;;;;;;59.10;31.95;;;5.30;99.90;;;;;;5134156;28;20184;-64
2022/12/02 03:05:44;;;;;;;57.22;32.20;;;5.30;99.90;;;;;;5133714;28;20172;-66
2022/12/02 03:08:10;;;;;;;59.65;32.25;;;5.40;99.90;;;;;;5116320;27;20188;-64
2022/12/02 03:10:37;;;;;;;57.70;32.33;;;5.40;99.90;;;;;;5137841;27;20180;-64
2022/12/02 03:13:06;;;;;;;63.28;32.28;;;5.40;99.90;;;;;;5119373;27;20180;-64
2022/12/02 03:15:31;;;;;;;61.33;32.85;;;5.50;99.90;;;;;;5137648;27;20211;-65
2022/12/02 03:17:57;;;;;;;60.53;33.47;;;5.50;99.90;;;;;;5137575;27;20532;-64
2022/12/02 03:20:24;;;;;;;63.13;33.40;;;5.40;99.90;;;;;;5137693;27;20632;-64
2022/12/02 03:22:50;;;;;;;59.47;32.88;;;5.40;99.90;;;;;;5137472;27;20648;-64
2022/12/02 03:25:16;;;;;;;63.08;33.50;;;5.60;99.90;;;;;;5119296;27;20173;-64
2022/12/02 03:27:42;;;;;;;60.90;32.75;;;5.80;99.90;;;;;;5102162;27;20168;-64
2022/12/02 03:30:08;;;;;;;62.05;32.60;;;6.00;99.90;;;;;;5102198;27;20255;-64
2022/12/02 03:32:35;;;;;;;61.53;32.50;;;6.00;99.90;;;;;;5137157;27;20660;-64
2022/12/02 03:35:01;;;;;;;70.88;34.70;;;5.70;99.90;;;;;;5137208;27;20707;-64
2022/12/02 03:37:27;;;;;;;64.90;33.10;;;5.90;99.90;;;;;;5137529;27;20187;-64
2022/12/02 03:39:53;;;;;;;66.30;33.72;;;6.00;99.90;;;;;;5136870;27;20229;-64
2022/12/02 03:42:19;;;;;;;69.22;35.20;;;6.10;99.90;;;;;;5137172;27;20554;-64
2022/12/02 03:44:45;;;;;;;67.70;35.20;;;6.00;99.90;;;;;;5137059;27;20529;-64
2022/12/02 03:47:15;;;;;;;65.70;35.45;;;6.20;99.90;;;;;;5137004;27;20165;-64
2022/12/02 03:49:40;;;;;;;71.05;35.42;;;6.20;99.90;;;;;;5118431;27;20224;-64
2022/12/02 03:52:06;;;;;;;72.68;36.40;;;6.40;99.90;;;;;;5137047;27;20184;-64
2022/12/02 03:54:33;;;;;;;77.75;36.78;;;6.40;99.90;;;;;;5136989;27;20199;-64
2022/12/02 03:56:59;;;;;;;73.88;36.47;;;6.50;99.90;;;;;;5136766;27;20529;-64
2022/12/02 03:59:26;;;;;;;74.30;36.33;;;6.50;99.90;;;;;;5136913;27;20172;-64
2022/12/02 04:01:53;;;;;;;76.15;36.80;;;6.20;99.90;;;;;;5136694;27;20183;-64
2022/12/02 04:04:19;;;;;;;73.90;36.67;;;6.30;99.90;;;;;;5118471;27;20176;-64
2022/12/02 04:06:44;;;;;;;72.15;36.38;;;6.40;99.90;;;;;;5101671;27;20529;-64
2022/12/02 04:09:10;;;;;;;82.07;37.58;;;6.30;99.90;;;;;;5136833;27;20176;-63
2022/12/02 04:11:35;;;;;;;75.68;37.28;;;6.50;99.90;;;;;;5136458;27;20214;-64
2022/12/02 04:14:01;;;;;;;73.97;36.58;;;6.50;99.90;;;;;;5136536;27;20180;-64
2022/12/02 04:16:27;;;;;;;72.10;35.45;;;6.20;99.90;;;;;;5101022;27;20177;-64
2022/12/02 04:18:52;;;;;;;75.35;35.90;;;6.00;99.90;;;;;;5117710;27;20199;-64
2022/12/02 04:21:18;;;;;;;75.18;36.78;;;6.00;99.90;;;;;;5117173;27;20510;-64
2022/12/02 04:23:47;;;;;;;76.85;36.38;;;6.00;99.90;;;;;;5136726;27;20267;-64
2022/12/02 04:26:13;;;;;;;73.63;37.20;;;6.30;99.90;;;;;;5117929;27;20195;-64
2022/12/02 04:28:38;;;;;;;73.47;37.10;;;6.30;99.90;;;;;;5117866;27;20171;-64
2022/12/02 04:31:04;;;;;;;75.95;37.03;;;6.20;99.90;;;;;;5117905;27;20177;-64
2022/12/02 04:33:30;;;;;;;75.40;37.15;;;6.40;99.90;;;;;;5135943;27;20664;-64
2022/12/02 04:35:55;;;;;;;76.50;37.08;;;6.60;99.90;;;;;;5136021;27;20663;-64
2022/12/02 04:38:21;;;;;;;75.57;37.40;;;6.50;99.90;;;;;;5136203;27;20177;-64
2022/12/02 04:40:46;;;;;;;81.03;38.58;;;6.60;99.90;;;;;;5135884;27;20187;-64
2022/12/02 04:43:12;;;;;;;75.53;36.67;;;6.20;99.90;;;;;;5117539;27;20176;-64
2022/12/02 04:45:41;;;;;;;73.07;36.85;;;6.10;99.90;;;;;;5135876;27;20254;-64
2022/12/02 04:48:07;;;;;;;78.13;37.17;;;6.50;99.90;;;;;;5135650;27;20591;-64
2022/12/02 04:50:33;;;;;;;75.30;36.88;;;6.30;99.90;;;;;;5117737;27;20172;-64
2022/12/02 04:52:58;;;;;;;80.72;38.88;;;6.30;99.90;;;;;;5135939;27;20173;-64
2022/12/02 04:55:24;;;;;;;75.68;37.67;;;6.10;99.90;;;;;;5135664;27;20200;-64
2022/12/02 04:57:50;;;;;;;80.95;38.50;;;6.30;99.90;;;;;;5117249;27;20172;-64
2022/12/02 05:00:16;;;;;;;80.00;39.67;;;6.40;99.90;;;;;;5135563;27;20172;-64
2022/12/02 05:02:42;;;;;;;82.43;38.08;;;6.40;99.90;;;;;;5135371;27;20262;-64
2022/12/02 05:05:08;;;;;;;81.93;39.15;;;6.40;99.90;;;;;;5117434;27;20190;-64
2022/12/02 05:07:33;;;;;;;89.60;40.22;;;6.20;99.90;;;;;;5135562;27;20259;-63
2022/12/02 05:10:00;;;;;;;85.00;39.65;;;6.10;99.90;;;;;;5117033;27;20301;-63
2022/12/02 05:12:25;;;;;;;81.82;39.47;;;6.10;99.90;;;;;;5117126;27;20169;-64
2022/12/02 05:14:51;;;;;;;83.88;39.13;;;6.10;99.90;;;;;;5135173;27;20204;-64
2022/12/02 05:17:17;;;;;;;80.63;39.88;;;6.30;99.90;;;;;;5116925;27;20180;-64
2022/12/02 05:19:43;;;;;;;89.68;40.90;;;6.30;99.90;;;;;;5116993;27;20256;-64
2022/12/02 05:22:09;;;;;;;85.40;39.88;;;6.10;99.90;;;;;;5135323;27;20332;-64
2022/12/02 05:24:35;;;;;;;84.47;37.25;;;6.00;99.90;;;;;;5134867;27;20192;-64
2022/12/02 05:27:01;;;;;;;87.72;41.45;;;6.30;99.90;;;;;;5099725;27;20220;-64
2022/12/02 05:29:27;;;;;;;80.25;38.90;;;6.20;99.90;;;;;;5134953;27;20169;-64
2022/12/02 05:31:52;;;;;;;81.38;39.97;;;6.10;99.90;;;;;;5116235;27;20230;-64
2022/12/02 05:34:18;;;;;;;85.75;39.42;;;6.20;99.90;;;;;;5116855;27;20177;-64
2022/12/02 05:36:44;;;;;;;81.63;39.05;;;6.30;99.90;;;;;;5134966;27;20177;-64
2022/12/02 05:39:10;;;;;;;81.03;39.33;;;6.10;99.90;;;;;;5134436;27;20194;-64
2022/12/02 05:41:37;;;;;;;72.53;37.75;;;6.10;99.90;;;;;;5134446;27;20192;-64
2022/12/02 05:44:18;;;;;;;89.50;40.88;;;6.20;99.90;;;;;;5134568;27;20374;-64
2022/12/02 05:46:43;;;;;;;83.63;39.75;;;6.20;99.90;;;;;;5134767;27;20175;-64
2022/12/02 05:49:20;;;;;;;82.10;39.47;;;6.30;99.90;;;;;;5134736;27;20228;-64
2022/12/02 05:51:48;;;;;;;88.32;41.47;;;6.10;99.90;;;;;;5134056;27;20175;-64
2022/12/02 05:54:18;;;;;;;81.75;42.40;;;6.00;99.90;;;;;;5099600;27;20175;-64
2022/12/02 05:56:44;;;;;;;90.55;43.53;;;5.80;99.90;;;;;;5134371;27;20176;-64
2022/12/02 05:59:14;;;;;;;93.55;41.53;;;5.70;99.90;;;;;;5116262;27;20236;-63
2022/12/02 06:01:40;;;;;;;86.97;41.20;;;5.60;99.90;;;;;;5134624;27;20556;-62
2022/12/02 06:04:18;;;;;;;84.75;41.45;;;5.70;99.90;;;;;;5115059;27;20176;-62
2022/12/02 06:06:44;;;;;;;85.95;40.15;;;5.60;99.90;;;;;;5134459;27;20168;-62
2022/12/02 06:09:31;;;;;;;94.65;42.22;;;5.60;99.90;;;;;;5115918;27;20180;-62
2022/12/02 06:11:57;;;;;;;85.13;41.50;;;5.70;99.90;;;;;;5134578;27;20194;-64
2022/12/02 06:14:31;;;;;;;94.57;42.20;;;5.60;99.90;;;;;;5134386;27;20645;-62
2022/12/02 06:17:01;;;;;;;86.13;40.90;;;5.60;99.90;;;;;;5134761;27;20172;-62
2022/12/02 06:19:37;;;;;;;87.05;42.20;;;5.80;99.90;;;;;;5115954;28;20168;-62
2022/12/02 06:22:07;;;;;;;95.63;44.05;;;5.90;99.90;;;;;;5134145;28;20529;-63
2022/12/02 06:24:34;;;;;;;82.50;42.38;;;5.80;99.90;;;;;;5134240;28;20195;-63
2022/12/02 06:27:02;;;;;;;86.85;42.05;;;5.80;99.90;;;;;;5116446;28;20169;-62
2022/12/02 06:29:31;;;;;;;90.05;42.40;;;5.90;99.90;;;;;;5134116;28;20198;-62
2022/12/02 06:31:59;;;;;;;95.65;42.42;;;5.60;99.90;;;;;;5115643;28;20183;-62
2022/12/02 06:34:38;;;;;;;93.72;44.50;;;5.60;99.90;;;;;;5115605;28;20274;-63
2022/12/02 06:37:21;;;;;;;104.18;45.00;;;5.70;99.90;;;;;;5134660;28;20201;-62
2022/12/02 06:39:50;;;;;;;99.13;44.10;;;5.80;99.90;;;;;;5134045;28;20186;-63
2022/12/02 06:42:31;;;;;;;106.72;45.55;;;5.70;99.90;;;;;;5115576;28;20569;-63
2022/12/02 06:45:24;;;;;;;102.30;42.75;;;5.80;99.90;;;;;;5138202;27;20524;-63
2022/12/02 06:47:57;;;;;;;78.75;35.85;;;5.80;99.90;;;;;;5138496;27;20179;-62
2022/12/02 06:50:39;;;;;;;79.55;34.55;;;5.70;99.90;;;;;;5138187;27;20238;-62
2022/12/02 06:53:23;;;;;;;80.03;36.15;;;5.50;99.90;;;;;;5138005;27;20176;-62
2022/12/02 06:55:57;;;;;;;75.45;33.60;;;5.30;99.90;;;;;;5138040;27;20294;-63
2022/12/02 06:58:29;;;;;;;77.97;35.00;;;5.10;99.90;;;;;;5138194;27;20187;-64
2022/12/02 07:01:15;;;;;;;80.43;34.58;;;5.10;99.90;;;;;;5138195;27;20179;-63
2022/12/02 07:04:05;;;;;;;74.03;31.35;;;5.20;99.90;;;;;;5137317;27;20188;-62
2022/12/02 07:06:32;;;;;;;82.60;33.65;;;5.30;99.90;;;;;;5085233;27;20202;-62
2022/12/02 07:09:01;;;;;;;79.78;33.92;;;5.30;99.90;;;;;;5137802;27;20285;-62
2022/12/02 07:11:48;;;;;;;74.97;34.47;;;5.30;99.90;;;;;;5137561;27;20555;-62
2022/12/02 07:14:39;;;;;;;85.68;35.45;;;5.20;99.90;;;;;;5137637;27;20262;-62
2022/12/02 07:17:25;;;;;;;72.28;31.67;;;5.30;99.90;;;;;;5137804;27;20237;-62
2022/12/02 07:20:06;;;;;;;74.15;30.58;;;5.30;99.90;;;;;;5137551;27;20197;-62
2022/12/02 07:22:46;;;;;;;67.05;30.92;;;5.30;99.90;;;;;;5137440;27;20221;-62
2022/12/02 07:25:15;;;;;;;70.25;31.92;;;5.40;99.90;;;;;;5137509;27;20172;-63
2022/12/02 07:27:46;;;;;;;69.05;33.08;;;5.40;99.90;;;;;;5137500;27;20230;-62
2022/12/02 07:30:30;;;;;;;66.00;32.17;;;5.20;99.90;;;;;;5137559;27;20198;-62
2022/12/02 07:32:56;;;;;;;67.40;29.88;;;5.30;99.90;;;;;;5137209;27;20183;-63
2022/12/02 07:35:22;;;;;;;62.65;29.58;;;5.20;99.90;;;;;;5136848;27;20672;-62
2022/12/02 07:37:48;;;;;;;62.90;28.88;;;5.20;99.90;;;;;;5118407;27;20233;-62
2022/12/02 07:40:15;;;;;;;77.60;35.85;;;5.20;99.90;;;;;;5118837;27;20183;-61
2022/12/02 07:42:42;;;;;;;78.38;36.38;;;5.10;99.90;;;;;;5118959;27;20180;-62
2022/12/02 07:45:09;;;;;;;77.78;38.00;;;5.00;99.90;;;;;;5136940;27;20184;-62
2022/12/02 07:47:34;;;;;;;83.13;36.25;;;4.90;99.90;;;;;;5137176;27;20184;-62
2022/12/02 07:50:00;;;;;;;71.78;35.83;;;5.10;99.90;;;;;;5137150;27;20306;-62
2022/12/02 07:52:26;;;;;;;74.30;33.22;;;5.10;99.90;;;;;;5118572;27;20633;-61
2022/12/02 07:54:55;;;;;;;67.43;33.90;;;5.20;99.90;;;;;;5118235;27;20260;-61
2022/12/02 07:57:22;;;;;;;77.85;34.75;;;4.90;99.90;;;;;;5118547;27;20599;-62
2022/12/02 07:59:48;;;;;;;74.38;34.88;;;4.90;99.90;;;;;;5118508;27;20172;-62
2022/12/02 08:02:14;;;;;;;75.07;33.50;;;4.90;99.90;;;;;;5136687;27;20578;-61
2022/12/02 08:04:40;;;;;;;74.28;32.83;;;5.00;99.90;;;;;;5136688;27;20175;-62
2022/12/02 08:07:05;;;;;;;78.25;34.75;;;4.80;99.90;;;;;;5136585;27;20175;-62
2022/12/02 08:09:31;;;;;;;72.95;33.40;;;4.80;99.90;;;;;;5118328;27;20175;-62
2022/12/02 08:11:57;;;;;;;75.95;33.75;;;4.60;99.90;;;;;;5118186;27;20225;-62
2022/12/02 08:14:22;;;;;;;74.97;34.75;;;4.70;99.90;;;;;;5136405;27;20429;-62
2022/12/02 08:16:48;;;;;;;73.13;33.25;;;4.90;99.90;;;;;;5136263;27;20633;-62
2022/12/02 08:19:13;;;;;;;70.57;32.33;;;5.10;99.90;;;;;;5118142;27;20176;-61
2022/12/02 08:21:39;;;;;;;72.95;36.03;;;5.10;99.90;;;;;;5101260;27;20171;-63
2022/12/02 08:24:06;;;;;;;81.68;35.42;;;5.20;99.90;;;;;;5136383;27;20176;-61
2022/12/02 08:26:35;;;;;;;68.07;34.22;;;5.40;99.90;;;;;;5136027;27;20196;-61
2022/12/02 08:29:01;;;;;;;74.97;35.20;;;5.30;99.90;;;;;;5135914;27;20168;-62
2022/12/02 08:31:27;;;;;;;64.40;31.92;;;4.90;99.90;;;;;;5117107;27;20266;-61
2022/12/02 08:33:53;;;;;;;77.25;35.83;;;4.70;99.90;;;;;;5136045;27;20229;-61
2022/12/02 08:36:20;;;;;;;66.05;31.90;;;4.80;99.90;;;;;;5135597;27;20620;-61
2022/12/02 08:38:46;;;;;;;69.90;32.53;;;4.80;99.90;;;;;;5134653;27;20176;-61
2022/12/02 08:41:12;;;;;;;69.80;33.47;;;4.70;99.90;;;;;;5135905;27;20248;-61
2022/12/02 08:43:38;;;;;;;77.47;35.10;;;4.70;99.90;;;;;;5117392;27;20205;-60
2022/12/02 08:46:05;;;;;;;69.28;32.97;;;4.80;99.90;;;;;;5135828;27;20219;-61
2022/12/02 08:48:30;;;;;;;78.05;34.53;;;5.00;99.90;;;;;;5136250;27;20187;-61
2022/12/02 08:50:56;;;;;;;69.35;32.72;;;5.10;99.90;;;;;;5117637;27;20180;-61
2022/12/02 08:53:22;;;;;;;61.20;29.25;;;5.10;99.90;;;;;;5135761;27;20176;-61
2022/12/02 08:55:48;;;;;;;61.17;29.65;;;4.80;99.90;;;;;;5135517;27;20211;-61
2022/12/02 08:58:14;;;;;;;64.65;30.55;;;5.10;99.90;;;;;;5117263;27;20183;-61
2022/12/02 09:00:40;;;;;;;55.47;27.40;;;5.00;99.90;;;;;;5135951;27;20176;-61
2022/12/02 09:03:07;;;;;;;55.47;26.75;;;5.10;99.90;;;;;;5117237;27;20266;-61
2022/12/02 09:05:37;;;;;;;57.97;28.25;;;4.60;99.90;;;;;;5134869;27;20250;-61
2022/12/02 09:08:04;;;;;;;48.67;24.58;;;4.50;99.90;;;;;;5135350;27;20186;-61
2022/12/02 09:10:30;;;;;;;50.75;26.05;;;4.80;99.90;;;;;;5116840;27;20670;-61
2022/12/02 09:12:56;;;;;;;47.28;24.70;;;5.00;99.90;;;;;;5135300;27;20187;-61
2022/12/02 09:15:23;;;;;;;49.85;24.00;;;5.00;99.90;;;;;;5135210;27;20212;-61
2022/12/02 09:17:49;;;;;;;44.58;22.98;;;4.60;99.90;;;;;;5135234;27;20252;-61
2022/12/02 09:20:16;;;;;;;44.13;23.10;;;4.50;99.90;;;;;;5135253;27;20175;-60
2022/12/02 09:22:44;;;;;;;46.75;23.33;;;4.30;99.90;;;;;;5135144;27;20240;-61
2022/12/02 09:25:10;;;;;;;50.05;23.17;;;4.30;99.90;;;;;;5135099;27;20173;-61
2022/12/02 09:27:36;;;;;;;44.33;23.05;;;4.40;99.90;;;;;;5135471;27;20417;-61
2022/12/02 09:30:02;;;;;;;41.22;21.35;;;4.30;99.90;;;;;;5134942;27;20672;-61
2022/12/02 09:32:28;;;;;;;46.85;22.90;;;4.40;99.90;;;;;;5116730;27;20180;-61
2022/12/02 09:34:54;;;;;;;45.03;22.67;;;4.40;99.90;;;;;;5134828;27;20336;-61
2022/12/02 09:37:20;;;;;;;42.10;22.65;;;4.50;99.90;;;;;;5116696;27;20184;-61
2022/12/02 09:39:47;;;;;;;45.60;22.88;;;4.60;99.90;;;;;;5134596;27;20544;-61
2022/12/02 09:42:14;;;;;;;44.22;22.77;;;4.70;99.90;;;;;;5135108;27;20554;-61
2022/12/02 09:44:40;;;;;;;45.50;24.60;;;4.50;99.90;;;;;;5116605;27;20694;-61
2022/12/02 09:47:06;;;;;;;43.60;21.38;;;4.40;99.90;;;;;;5099538;27;20175;-61
2022/12/02 09:49:32;;;;;;;47.92;22.58;;;4.50;99.90;;;;;;5134714;27;20183;-61
2022/12/02 09:52:01;;;;;;;49.25;22.75;;;4.60;99.90;;;;;;5116292;27;20175;-62
2022/12/02 09:54:28;;;;;;;47.95;23.00;;;4.40;99.90;;;;;;5134688;27;20183;-61
2022/12/02 09:56:53;;;;;;;48.47;24.05;;;4.50;99.90;;;;;;5134458;27;20203;-61
2022/12/02 09:59:19;;;;;;;48.35;23.30;;;4.50;99.90;;;;;;5134632;27;20175;-62
2022/12/02 10:01:47;;;;;;;49.17;24.40;;;4.60;99.90;;;;;;5134542;27;20224;-62
2022/12/02 10:04:18;;;;;;;50.67;25.52;;;4.50;99.90;;;;;;5134368;27;20180;-61
2022/12/02 10:06:44;;;;;;;46.97;22.77;;;4.60;99.90;;;;;;5115839;27;20176;-61
2022/12/02 10:09:16;;;;;;;44.50;23.45;;;4.40;99.90;;;;;;5134644;27;20241;-61
2022/12/02 10:11:43;;;;;;;47.00;23.45;;;4.50;99.90;;;;;;5134232;27;20537;-61
2022/12/02 10:14:12;;;;;;;48.55;24.85;;;4.40;99.90;;;;;;5134482;27;20203;-61
2022/12/02 10:16:38;;;;;;;51.42;23.15;;;4.40;99.90;;;;;;5134189;27;20549;-61
2022/12/02 10:19:05;;;;;;;44.63;21.98;;;4.40;99.90;;;;;;5098983;27;20227;-61
2022/12/02 10:21:34;;;;;;;47.97;24.08;;;4.50;99.90;;;;;;5133961;27;20179;-61
2022/12/02 10:24:02;;;;;;;44.38;22.30;;;4.50;99.90;;;;;;5099043;28;20179;-61
2022/12/02 10:26:49;;;;;;;47.30;22.88;;;4.70;99.90;;;;;;5134193;28;20629;-61
2022/12/02 10:29:29;;;;;;;44.78;22.30;;;4.60;99.90;;;;;;5134021;28;20180;-61
2022/12/02 10:31:56;;;;;;;46.50;22.02;;;4.50;99.90;;;;;;5134063;28;20171;-61
2022/12/02 10:34:22;;;;;;;48.50;24.02;;;4.60;99.90;;;;;;5134154;28;20198;-61
2022/12/02 10:36:48;;;;;;;46.83;24.45;;;4.70;99.90;;;;;;5134172;28;20626;-61
2022/12/02 10:39:20;;;;;;;50.42;24.33;;;4.60;99.90;;;;;;5134142;28;20188;-60
2022/12/02 10:41:46;;;;;;;42.90;22.73;;;4.60;99.90;;;;;;5133715;28;20207;-61
2022/12/02 10:44:14;;;;;;;44.97;22.25;;;4.40;99.90;;;;;;5133910;28;20254;-60
2022/12/02 10:46:40;;;;;;;50.47;23.13;;;4.50;99.90;;;;;;5134167;28;20180;-60
2022/12/02 10:49:28;;;;;;;45.00;22.80;;;4.70;99.90;;;;;;5133817;28;20184;-61
2022/12/02 10:51:57;;;;;;;42.00;22.65;;;4.70;99.90;;;;;;5133971;28;20531;-61
2022/12/02 10:54:31;;;;;;;41.88;21.98;;;4.60;99.90;;;;;;5134098;28;20262;-60
2022/12/02 10:57:02;;;;;;;40.83;20.95;;;4.60;99.90;;;;;;5133706;28;20540;-61
2022/12/02 10:59:29;;;;;;;41.15;20.63;;;4.50;99.90;;;;;;5133953;28;20545;-61
2022/12/02 11:01:54;;;;;;;43.17;22.55;;;4.70;99.90;;;;;;5133820;28;20276;-61
2022/12/02 11:04:20;;;;;;;41.65;21.25;;;4.70;99.90;;;;;;5115497;28;20169;-63
2022/12/02 11:06:48;;;;;;;39.58;21.50;;;4.70;99.90;;;;;;5133798;28;20188;-61
2022/12/02 11:09:16;;;;;;;38.58;20.23;;;4.80;99.90;;;;;;5133765;28;20210;-61
2022/12/02 11:11:41;;;;;;;47.83;25.20;;;4.80;99.90;;;;;;5133762;28;20180;-61
2022/12/02 11:14:12;;;;;;;37.20;20.08;;;4.80;99.90;;;;;;5133976;28;20221;-61
2022/12/02 11:16:43;;;;;;;32.92;19.30;;;4.80;99.90;;;;;;5133491;28;20236;-60
2022/12/02 11:19:11;;;;;;;33.83;19.27;;;4.80;99.90;;;;;;5133673;28;20179;-61
2022/12/02 11:21:40;;;;;;;35.20;18.40;;;4.90;99.90;;;;;;5133588;28;20180;-61
2022/12/02 11:24:26;;;;;;;36.80;18.05;;;4.90;99.90;;;;;;5133509;28;20637;-61
2022/12/02 11:26:58;;;;;;;34.25;18.63;;;4.70;99.90;;;;;;5114752;28;20187;-61
2022/12/02 11:29:24;;;;;;;33.50;18.20;;;4.60;99.90;;;;;;5134983;27;20657;-61
2022/12/02 11:32:01;;;;;;;31.50;17.63;;;4.70;99.90;;;;;;5137192;27;20267;-61
2022/12/02 11:34:40;;;;;;;32.17;17.23;;;4.80;99.90;;;;;;5136912;27;20267;-61
2022/12/02 11:37:24;;;;;;;35.60;18.30;;;4.90;99.90;;;;;;5137312;27;20202;-61
2022/12/02 11:39:51;;;;;;;27.85;16.60;;;5.00;99.90;;;;;;5136791;27;20532;-60
2022/12/02 11:42:18;;;;;;;31.23;17.05;;;4.90;99.90;;;;;;5137078;27;20563;-60
2022/12/02 11:44:44;;;;;;;30.55;17.77;;;4.80;99.90;;;;;;5136508;27;20619;-60
2022/12/02 11:47:32;;;;;;;33.55;17.63;;;4.90;99.90;;;;;;5118617;27;20200;-60
2022/12/02 11:50:11;;;;;;;29.10;15.65;;;4.90;99.90;;;;;;5101535;27;20286;-61
2022/12/02 11:52:39;;;;;;;28.17;16.65;;;4.70;99.90;;;;;;5136913;27;20173;-62
2022/12/02 11:55:18;;;;;;;28.08;16.17;;;4.60;99.90;;;;;;5136652;27;20210;-61
2022/12/02 11:57:50;;;;;;;29.77;17.27;;;4.70;99.90;;;;;;5118609;27;20175;-61
2022/12/02 12:00:24;;;;;;;32.75;17.70;;;4.60;99.90;;;;;;5118367;27;20178;-61
2022/12/02 12:03:24;;;;;;;31.63;16.85;;;4.60;99.90;;;;;;5117690;27;20168;-61
2022/12/02 12:06:10;;;;;;;27.67;15.68;;;4.70;99.90;;;;;;5062795;27;20196;-60
2022/12/02 12:08:38;;;;;;;28.88;17.10;;;4.70;99.90;;;;;;5136301;27;20172;-60
2022/12/02 12:11:20;;;;;;;31.48;16.02;;;4.60;99.90;;;;;;5136483;27;20176;-61
2022/12/02 12:14:00;;;;;;;30.42;16.65;;;4.60;99.90;;;;;;5136420;27;20195;-63
2022/12/02 12:16:31;;;;;;;31.95;18.02;;;4.70;99.90;;;;;;5136463;27;20207;-61
2022/12/02 12:18:58;;;;;;;27.55;16.17;;;4.80;99.90;;;;;;5136649;27;20180;-61
2022/12/02 12:21:30;;;;;;;27.00;15.38;;;4.80;99.90;;;;;;5136349;27;20176;-61
2022/12/02 12:24:34;;;;;;;31.33;18.00;;;4.80;99.90;;;;;;5136181;27;20556;-61
2022/12/02 12:27:02;;;;;;;27.35;16.15;;;4.70;99.90;;;;;;5134958;27;20168;-61
2022/12/02 12:29:37;;;;;;;27.98;18.10;;;4.60;99.90;;;;;;5136547;27;20168;-61
2022/12/02 12:32:03;;;;;;;34.92;18.88;;;4.60;99.90;;;;;;5117728;27;20176;-61
2022/12/02 12:34:29;;;;;;;26.80;16.23;;;4.60;99.90;;;;;;5118013;27;20179;-61
2022/12/02 12:36:55;;;;;;;25.40;15.07;;;4.50;99.90;;;;;;5117451;27;20537;-61
2022/12/02 12:39:21;;;;;;;25.52;14.82;;;4.60;99.90;;;;;;5136052;27;20512;-61
2022/12/02 12:41:47;;;;;;;24.85;15.82;;;4.70;99.90;;;;;;5135442;27;20274;-61
2022/12/02 12:44:13;;;;;;;25.83;15.60;;;4.70;99.90;;;;;;5117553;27;20515;-61
2022/12/02 12:46:39;;;;;;;23.30;14.20;;;4.80;99.90;;;;;;5135703;27;20207;-61
2022/12/02 12:49:05;;;;;;;25.42;15.20;;;4.70;99.90;;;;;;5099965;27;20545;-61